Hillsboro, Ohio
Current Conditions -  °F | °C
As of 3:54 PM on Friday 19 Dec 2014 (Local Time) from KILN Reporting Station
Overcast Overcast  
Wind Chill: 29°   Ceiling: 2100
Heat Index: 29°   Visibility: 10mi
Dew Point: 21°   Wind: 3mph
Humidity: 72%   Direction: 50°NE
Pressure: 30.23"   Gusts: NA
Location:  39.2°N, 83.61°W
Report Text: KILN 192054Z AUTO 05003KT 10SM OVC021 M02/M06 A3023 RMK AO2 SLP267 T10171061 56006
Loading
Personal Weather Stations






























Interactive Weather Map New forecast layout! Learn more

10-Day Weather Forecast

Advertisements
Track Severe Weather on mobile